createdAt,value
2018-05-12T00:00:45.809Z,86.60
2018-05-12T00:03:15.065Z,87.40
2018-05-12T00:05:44.468Z,87.00
2018-05-12T00:08:13.528Z,88.60
2018-05-12T00:10:43.288Z,89.20
2018-05-12T00:13:13.303Z,90.40
2018-05-12T00:15:42.384Z,90.40
2018-05-12T00:18:11.455Z,91.20
2018-05-12T00:20:40.521Z,91.20
2018-05-12T00:23:09.605Z,91.20
2018-05-12T00:25:39.946Z,91.30
2018-05-12T00:28:09.506Z,91.70
2018-05-12T00:30:40.765Z,91.90
2018-05-12T00:33:10.508Z,92.20
2018-05-12T00:35:40.368Z,92.90
2018-05-12T00:38:10.384Z,92.90
2018-05-12T00:40:40.014Z,93.30
2018-05-12T00:43:09.343Z,93.90
2018-05-12T00:45:38.504Z,93.70
2018-05-12T00:48:08.243Z,93.80
2018-05-12T00:50:37.361Z,94.30
2018-05-12T00:53:06.558Z,94.40
2018-05-12T00:55:39.344Z,94.60
2018-05-12T00:58:09.378Z,94.60
2018-05-12T01:00:39.076Z,95.10
2018-05-12T01:03:09.851Z,94.60
2018-05-12T01:05:39.067Z,94.60
2018-05-12T01:08:08.181Z,94.80
2018-05-12T01:10:37.708Z,95.00
2018-05-12T01:13:07.684Z,95.10
2018-05-12T01:15:36.807Z,95.00
2018-05-12T01:18:05.910Z,95.20
2018-05-12T01:20:36.366Z,95.40
2018-05-12T01:23:05.490Z,95.30
2018-05-12T01:25:34.539Z,95.90
2018-05-12T01:28:04.647Z,96.00
2018-05-12T01:30:34.494Z,96.20
2018-05-12T01:33:03.633Z,96.10
2018-05-12T01:35:32.680Z,95.80
2018-05-12T01:38:01.921Z,96.00
2018-05-12T01:40:32.046Z,95.80
2018-05-12T01:43:01.221Z,95.50
2018-05-12T01:45:31.176Z,95.80
2018-05-12T01:48:00.355Z,95.70
2018-05-12T01:50:29.595Z,96.00
2018-05-12T01:52:59.892Z,95.80
2018-05-12T01:55:29.186Z,96.10
2018-05-12T01:57:58.319Z,96.10
2018-05-12T02:00:27.459Z,96.50
2018-05-12T02:02:56.596Z,97.10
2018-05-12T02:05:25.751Z,96.50
2018-05-12T02:07:54.932Z,96.90
2018-05-12T02:10:24.275Z,96.60
2018-05-12T02:12:53.829Z,96.30
2018-05-12T02:15:22.961Z,96.30
2018-05-12T02:17:52.124Z,96.80
2018-05-12T02:20:21.212Z,96.70
2018-05-12T02:22:51.204Z,97.10
2018-05-12T02:25:20.375Z,97.60
2018-05-12T02:27:49.440Z,97.90
2018-05-12T02:30:18.573Z,98.00
2018-05-12T02:32:47.642Z,98.20
2018-05-12T02:35:16.739Z,98.50
2018-05-12T02:37:45.946Z,98.40
2018-05-12T02:40:15.311Z,98.80
2018-05-12T02:42:45.204Z,98.50
2018-05-12T02:45:15.162Z,98.50
2018-05-12T02:47:45.250Z,98.70
2018-05-12T02:50:14.364Z,98.90
2018-05-12T02:52:43.392Z,99.30
2018-05-12T02:55:12.495Z,99.50
2018-05-12T02:57:41.730Z,99.70
2018-05-12T03:00:10.914Z,99.70
2018-05-12T03:02:40.072Z,99.70
2018-05-12T03:05:09.528Z,99.80
2018-05-12T03:07:38.770Z,99.40
2018-05-12T03:10:08.011Z,99.70
2018-05-12T03:12:38.058Z,99.90
2018-05-12T03:15:07.468Z,99.90
2018-05-12T03:17:36.625Z,99.40
2018-05-12T03:20:05.742Z,99.60
2018-05-12T03:22:34.870Z,99.20
2018-05-12T03:25:03.957Z,99.90
2018-05-12T03:27:33.955Z,99.40
2018-05-12T03:30:03.079Z,99.90
2018-05-12T03:32:32.097Z,99.90
2018-05-12T03:35:01.227Z,99.90
2018-05-12T03:37:31.131Z,99.90
2018-05-12T03:40:01.163Z,99.90
2018-05-12T03:42:30.238Z,99.90
2018-05-12T03:45:01.142Z,99.90
2018-05-12T03:47:30.358Z,99.90
2018-05-12T03:49:59.624Z,99.90
2018-05-12T03:52:28.658Z,99.90
2018-05-12T03:54:58.537Z,99.90
2018-05-12T03:57:27.729Z,99.90
2018-05-12T03:59:57.717Z,99.90
2018-05-12T04:02:26.841Z,99.90
2018-05-12T04:05:07.207Z,99.90
2018-05-12T04:07:47.615Z,99.90
2018-05-12T04:10:41.129Z,99.90
2018-05-12T04:13:10.925Z,99.90
2018-05-12T04:15:40.460Z,99.90
2018-05-12T04:18:09.621Z,99.90
2018-05-12T04:20:38.695Z,99.90
2018-05-12T04:23:07.743Z,99.90
2018-05-12T04:25:36.747Z,99.90
2018-05-12T04:28:05.879Z,99.90
2018-05-12T04:30:35.029Z,99.90
2018-05-12T04:33:04.208Z,99.90
2018-05-12T04:35:33.220Z,99.90
2018-05-12T04:38:02.393Z,99.90
2018-05-12T04:40:31.437Z,99.90
2018-05-12T04:43:00.493Z,99.90
2018-05-12T04:45:29.627Z,99.90
2018-05-12T04:47:58.693Z,99.90
2018-05-12T04:50:27.815Z,99.90
2018-05-12T04:52:56.884Z,99.90
2018-05-12T04:55:25.992Z,99.90
2018-05-12T04:57:55.059Z,99.90
2018-05-12T05:00:24.258Z,99.90
2018-05-12T05:02:53.328Z,99.90
2018-05-12T05:05:22.376Z,99.90
2018-05-12T05:07:51.473Z,99.90
2018-05-12T05:10:20.803Z,99.90
2018-05-12T05:12:49.849Z,99.90
2018-05-12T05:15:18.981Z,99.90
2018-05-12T05:17:48.552Z,99.90
2018-05-12T05:20:17.584Z,99.90
2018-05-12T05:22:46.660Z,99.90
2018-05-12T05:25:16.453Z,99.90
2018-05-12T05:27:45.655Z,99.90
2018-05-12T05:30:14.732Z,99.90
2018-05-12T05:32:43.758Z,99.90
2018-05-12T05:35:12.818Z,99.90
2018-05-12T05:37:42.064Z,99.10
2018-05-12T05:40:11.451Z,97.20
2018-05-12T05:42:41.234Z,95.30
2018-05-12T05:45:10.325Z,95.20
2018-05-12T05:47:39.563Z,95.00
2018-05-12T05:50:08.623Z,94.50
2018-05-12T05:52:37.693Z,94.30
2018-05-12T05:55:06.762Z,93.90
2018-05-12T05:57:35.857Z,93.20
2018-05-12T06:00:05.198Z,93.40
2018-05-12T06:02:34.253Z,93.30
2018-05-12T06:05:03.352Z,93.20
2018-05-12T06:07:32.422Z,92.40
2018-05-12T06:10:01.461Z,92.00
2018-05-12T06:12:30.479Z,91.90
2018-05-12T06:15:00.498Z,91.70
2018-05-12T06:17:30.275Z,91.60
2018-05-12T06:19:59.947Z,91.60
2018-05-12T06:22:29.332Z,91.80
2018-05-12T06:24:58.523Z,92.00
2018-05-12T06:27:28.359Z,92.60
2018-05-12T06:29:57.417Z,92.60
2018-05-12T06:32:26.469Z,92.60
2018-05-12T06:34:55.515Z,92.70
2018-05-12T06:37:25.460Z,92.70
2018-05-12T06:39:54.480Z,92.60
2018-05-12T06:42:23.511Z,92.70
2018-05-12T06:44:53.830Z,93.40
2018-05-12T06:47:23.644Z,93.70
2018-05-12T06:49:52.738Z,93.40
2018-05-12T06:52:22.557Z,93.60
2018-05-12T06:54:52.412Z,93.80
2018-05-12T06:57:21.448Z,93.80
2018-05-12T06:59:50.514Z,94.00
2018-05-12T07:02:19.530Z,94.00
2018-05-12T07:04:48.578Z,94.30
2018-05-12T07:07:17.692Z,94.80
2018-05-12T07:09:47.625Z,94.80
2018-05-12T07:12:16.702Z,94.70
2018-05-12T07:14:46.233Z,95.00
2018-05-12T07:17:15.299Z,95.20
2018-05-12T07:19:45.117Z,95.30
2018-05-12T07:22:14.532Z,95.30
2018-05-12T07:24:43.546Z,95.30
2018-05-12T07:27:13.530Z,95.60
2018-05-12T07:29:42.674Z,95.60
2018-05-12T07:32:12.570Z,95.90
2018-05-12T07:34:42.417Z,95.80
2018-05-12T07:37:11.622Z,95.80
2018-05-12T07:39:40.781Z,96.10
2018-05-12T07:42:09.794Z,96.40
2018-05-12T07:44:38.797Z,96.50
2018-05-12T07:47:07.864Z,96.60
2018-05-12T07:49:36.909Z,96.60
2018-05-12T07:52:06.021Z,96.60
2018-05-12T07:54:35.236Z,96.60
2018-05-12T07:57:04.336Z,96.80
2018-05-12T07:59:33.475Z,96.90
2018-05-12T08:02:02.533Z,97.10
2018-05-12T08:04:31.605Z,97.10
2018-05-12T08:07:00.773Z,97.20
2018-05-12T08:09:29.939Z,97.30
2018-05-12T08:11:59.010Z,97.30
2018-05-12T08:14:28.086Z,97.30
2018-05-12T08:16:57.161Z,97.20
2018-05-12T08:19:26.262Z,97.50
2018-05-12T08:21:55.370Z,97.40
2018-05-12T08:24:24.793Z,97.20
2018-05-12T08:26:53.820Z,97.50
2018-05-12T08:29:23.114Z,97.70
2018-05-12T08:31:52.227Z,97.40
2018-05-12T08:34:21.264Z,97.40
2018-05-12T08:36:50.410Z,97.40
2018-05-12T08:39:19.431Z,97.40
2018-05-12T08:41:49.255Z,97.50
2018-05-12T08:44:18.333Z,97.40
2018-05-12T08:46:47.412Z,97.40
2018-05-12T08:49:16.448Z,97.40
2018-05-12T08:51:45.507Z,97.60
2018-05-12T08:54:14.593Z,97.40
2018-05-12T08:56:43.692Z,97.20
2018-05-12T08:59:12.745Z,97.40
2018-05-12T09:01:41.884Z,97.30
2018-05-12T09:04:10.981Z,97.30
2018-05-12T09:06:40.056Z,97.20
2018-05-12T09:09:09.222Z,97.40
2018-05-12T09:11:38.308Z,97.30
2018-05-12T09:14:07.425Z,97.40
2018-05-12T09:16:36.478Z,97.40
2018-05-12T09:19:06.394Z,97.50
2018-05-12T09:21:35.426Z,97.50
2018-05-12T09:24:04.451Z,97.40
2018-05-12T09:26:34.025Z,97.80
2018-05-12T09:29:03.074Z,97.30
2018-05-12T09:31:32.168Z,97.60
2018-05-12T09:34:01.189Z,97.50
2018-05-12T09:36:30.267Z,97.60
2018-05-12T09:38:59.320Z,97.50
2018-05-12T09:41:28.407Z,97.60
2018-05-12T09:43:57.525Z,97.80
2018-05-12T09:46:27.306Z,97.80
2018-05-12T09:48:57.400Z,97.80
2018-05-12T09:51:26.445Z,97.50
2018-05-12T09:53:55.446Z,97.80
2018-05-12T09:56:24.540Z,98.00
2018-05-12T09:58:53.575Z,98.00
2018-05-12T10:01:22.647Z,98.20
2018-05-12T10:03:51.708Z,98.90
2018-05-12T10:06:21.504Z,98.30
2018-05-12T10:08:50.597Z,98.30
2018-05-12T10:11:19.647Z,98.40
2018-05-12T10:13:48.696Z,98.30
2018-05-12T10:16:17.822Z,98.40
2018-05-12T10:18:47.049Z,98.50
2018-05-12T10:21:16.104Z,98.10
2018-05-12T10:23:45.246Z,98.10
2018-05-12T10:26:14.283Z,97.90
2018-05-12T10:28:44.624Z,97.90
2018-05-12T10:31:13.913Z,97.80
2018-05-12T10:33:42.935Z,97.70
2018-05-12T10:36:11.954Z,97.80
2018-05-12T10:38:41.027Z,98.10
2018-05-12T10:41:10.051Z,98.10
2018-05-12T10:43:39.090Z,98.10
2018-05-12T10:46:08.279Z,98.20
2018-05-12T10:48:37.332Z,98.40
2018-05-12T10:51:06.440Z,98.60
2018-05-12T10:53:36.264Z,98.40
2018-05-12T10:56:05.379Z,98.40
2018-05-12T10:58:34.450Z,98.30
2018-05-12T11:01:03.637Z,98.20
2018-05-12T11:03:33.474Z,97.90
2018-05-12T11:06:02.482Z,97.90
2018-05-12T11:08:31.514Z,97.90
2018-05-12T11:11:00.559Z,98.20
2018-05-12T11:13:29.746Z,98.20
2018-05-12T11:15:58.891Z,98.50
2018-05-12T11:18:28.037Z,98.40
2018-05-12T11:20:57.207Z,98.60
2018-05-12T11:23:26.304Z,98.60
2018-05-12T11:25:55.323Z,98.80
2018-05-12T11:28:24.379Z,99.00
2018-05-12T11:30:54.867Z,99.50
2018-05-12T11:33:23.921Z,99.10
2018-05-12T11:35:52.996Z,99.40
2018-05-12T11:38:22.456Z,99.40
2018-05-12T11:40:52.040Z,99.50
2018-05-12T11:43:21.083Z,99.70
2018-05-12T11:45:50.226Z,99.70
2018-05-12T11:48:20.006Z,99.90
2018-05-12T11:50:49.048Z,99.90
2018-05-12T11:53:18.101Z,99.90
2018-05-12T11:55:48.952Z,99.90
2018-05-12T11:58:18.797Z,99.90
2018-05-12T12:00:47.997Z,99.90
2018-05-12T12:03:17.053Z,99.90
2018-05-12T12:05:46.093Z,99.90
2018-05-12T12:08:16.092Z,99.50
2018-05-12T12:10:45.147Z,99.50
2018-05-12T12:13:14.957Z,99.60
2018-05-12T12:15:44.787Z,99.40
2018-05-12T12:18:13.912Z,99.40
2018-05-12T12:20:43.121Z,99.30
2018-05-12T12:23:12.249Z,99.00
2018-05-12T12:25:41.333Z,99.20
2018-05-12T12:28:10.385Z,99.20
2018-05-12T12:30:39.542Z,99.30
2018-05-12T12:33:08.993Z,99.10
2018-05-12T12:35:38.455Z,99.10
2018-05-12T12:38:08.288Z,98.30
2018-05-12T12:40:38.110Z,98.30
2018-05-12T12:43:07.984Z,97.80
2018-05-12T12:45:37.134Z,97.80
2018-05-12T12:48:07.844Z,97.60
2018-05-12T12:50:37.049Z,97.00
2018-05-12T12:53:07.867Z,96.50
2018-05-12T12:55:37.122Z,96.50
2018-05-12T12:58:06.280Z,96.10
2018-05-12T13:00:35.805Z,95.80
2018-05-12T13:03:05.586Z,95.60
2018-05-12T13:05:35.515Z,95.60
2018-05-12T13:08:04.617Z,95.20
2018-05-12T13:10:33.649Z,94.90
2018-05-12T13:13:02.785Z,94.30
2018-05-12T13:15:31.926Z,93.70
2018-05-12T13:18:01.086Z,93.60
2018-05-12T13:20:30.121Z,93.40
2018-05-12T13:22:59.201Z,92.90
2018-05-12T13:25:28.239Z,92.60
2018-05-12T13:27:57.450Z,92.40
2018-05-12T13:30:27.322Z,91.90
2018-05-12T13:32:56.345Z,91.80
2018-05-12T13:35:25.963Z,91.10
2018-05-12T13:37:55.021Z,90.40
2018-05-12T13:40:24.384Z,89.50
2018-05-12T13:42:53.716Z,90.10
2018-05-12T13:45:23.563Z,89.20
2018-05-12T13:47:52.815Z,89.20
2018-05-12T13:50:21.948Z,89.50
2018-05-12T13:52:51.069Z,87.70
2018-05-12T13:55:20.334Z,84.10
2018-05-12T13:57:49.480Z,81.90
2018-05-12T14:00:18.646Z,81.40
2018-05-12T14:02:47.860Z,81.30
2018-05-12T14:05:17.053Z,81.30
2018-05-12T14:07:46.106Z,80.70
2018-05-12T14:10:15.976Z,77.50
2018-05-12T14:12:45.106Z,77.40
2018-05-12T14:15:14.475Z,78.40
2018-05-12T14:17:43.777Z,74.40
2018-05-12T14:20:12.958Z,75.30
2018-05-12T14:22:43.004Z,73.70
2018-05-12T14:25:13.439Z,72.30
2018-05-12T14:27:42.644Z,70.50
2018-05-12T14:30:13.279Z,66.60
2018-05-12T14:32:42.521Z,58.90
2018-05-12T14:35:11.787Z,57.60
2018-05-12T14:37:41.510Z,55.20
2018-05-12T14:40:11.416Z,52.50
2018-05-12T14:42:41.446Z,51.70
2018-05-12T14:45:10.572Z,51.60
2018-05-12T14:47:39.676Z,50.20
2018-05-12T14:50:08.755Z,48.60
2018-05-12T14:52:38.900Z,48.30
2018-05-12T14:55:08.050Z,46.40
2018-05-12T14:57:37.245Z,46.70
2018-05-12T15:00:06.623Z,45.10
2018-05-12T15:02:35.755Z,44.70
2018-05-12T15:05:05.493Z,44.30
2018-05-12T15:07:34.739Z,43.60
2018-05-12T15:10:03.906Z,44.10
2018-05-12T15:12:33.145Z,43.00
2018-05-12T15:15:02.348Z,42.70
2018-05-12T15:17:31.829Z,39.40
2018-05-12T15:20:00.962Z,40.90
2018-05-12T15:22:30.111Z,40.70
2018-05-12T15:24:59.313Z,40.70
2018-05-12T15:27:28.439Z,40.80
2018-05-12T15:29:58.030Z,40.70
2018-05-12T15:32:28.218Z,40.50
2018-05-12T15:34:57.425Z,38.30
2018-05-12T15:37:26.550Z,40.40
2018-05-12T15:39:55.954Z,38.00
2018-05-12T15:42:25.797Z,38.50
2018-05-12T15:44:55.022Z,38.50
2018-05-12T15:47:24.974Z,37.60
2018-05-12T15:49:54.240Z,37.00
2018-05-12T15:52:23.453Z,37.20
2018-05-12T15:54:55.209Z,37.40
2018-05-12T15:57:25.482Z,36.00
2018-05-12T15:59:54.767Z,35.30
2018-05-12T16:02:26.370Z,36.20
2018-05-12T16:04:55.530Z,36.10
2018-05-12T16:07:24.834Z,34.80
2018-05-12T16:09:54.876Z,35.30
2018-05-12T16:12:24.198Z,34.20
2018-05-12T16:14:53.317Z,35.70
2018-05-12T16:17:23.299Z,35.40
2018-05-12T16:19:52.588Z,34.80
2018-05-12T16:22:21.699Z,35.90
2018-05-12T16:24:50.817Z,35.00
2018-05-12T16:27:20.553Z,35.60
2018-05-12T16:29:50.521Z,36.50
2018-05-12T16:32:20.031Z,36.50
2018-05-12T16:34:50.449Z,35.00
2018-05-12T16:37:19.582Z,35.40
2018-05-12T16:39:49.049Z,36.00
2018-05-12T16:42:20.676Z,36.50
2018-05-12T16:44:50.081Z,35.40
2018-05-12T16:47:21.400Z,36.70
2018-05-12T16:49:50.788Z,35.90
2018-05-12T16:52:20.629Z,33.70
2018-05-12T16:54:50.857Z,33.60
2018-05-12T16:57:20.860Z,35.50
2018-05-12T16:59:50.189Z,37.00
2018-05-12T17:02:19.389Z,35.80
2018-05-12T17:04:48.513Z,35.30
2018-05-12T17:07:17.641Z,34.00
2018-05-12T17:09:46.918Z,31.80
2018-05-12T17:12:16.217Z,31.50
2018-05-12T17:14:45.390Z,31.90
2018-05-12T17:17:14.591Z,31.70
2018-05-12T17:19:43.651Z,30.00
2018-05-12T17:22:12.865Z,30.90
2018-05-12T17:24:42.036Z,30.10
2018-05-12T17:27:11.884Z,32.00
2018-05-12T17:29:40.983Z,32.00
2018-05-12T17:32:10.082Z,31.10
2018-05-12T17:34:39.247Z,28.80
2018-05-12T17:37:08.369Z,29.40
2018-05-12T17:39:37.487Z,30.30
2018-05-12T17:42:07.458Z,29.20
2018-05-12T17:44:37.400Z,30.40
2018-05-12T17:47:06.460Z,31.10
2018-05-12T17:49:35.624Z,36.20
2018-05-12T17:52:04.823Z,40.50
2018-05-12T17:54:35.240Z,42.40
2018-05-12T17:57:04.364Z,43.60
2018-05-12T17:59:34.437Z,44.70
2018-05-12T18:02:03.756Z,44.70
2018-05-12T18:04:32.894Z,44.70
2018-05-12T18:07:02.760Z,46.20
2018-05-12T18:09:31.981Z,46.10
2018-05-12T18:12:02.063Z,44.50
2018-05-12T18:14:32.064Z,44.40
2018-05-12T18:17:01.341Z,43.10
2018-05-12T18:19:30.517Z,43.40
2018-05-12T18:21:59.932Z,42.70
2018-05-12T18:24:29.054Z,40.40
2018-05-12T18:26:58.262Z,43.20
2018-05-12T18:29:27.439Z,46.20
2018-05-12T18:31:56.670Z,47.90
2018-05-12T18:34:25.955Z,46.90
2018-05-12T18:36:55.507Z,46.00
2018-05-12T18:39:25.593Z,45.40
2018-05-12T18:41:54.827Z,43.20
2018-05-12T18:44:24.884Z,46.90
2018-05-12T18:46:55.077Z,46.90
2018-05-12T18:49:24.213Z,49.20
2018-05-12T18:51:53.393Z,49.30
2018-05-12T18:54:22.589Z,49.30
2018-05-12T18:56:51.905Z,48.50
2018-05-12T18:59:21.027Z,46.60
2018-05-12T19:01:50.121Z,45.70
2018-05-12T19:04:20.360Z,47.00
2018-05-12T19:06:49.806Z,47.90
2018-05-12T19:09:19.124Z,47.50
2018-05-12T19:11:48.354Z,45.50
2018-05-12T19:14:18.613Z,47.20
2018-05-12T19:16:48.291Z,50.80
2018-05-12T19:19:17.463Z,53.20
2018-05-12T19:21:46.553Z,54.00
2018-05-12T19:24:16.440Z,52.70
2018-05-12T19:26:45.519Z,52.50
2018-05-12T19:29:14.662Z,51.30
2018-05-12T19:31:43.775Z,50.70
2018-05-12T19:34:12.941Z,49.90
2018-05-12T19:36:42.077Z,49.90
2018-05-12T19:39:11.930Z,50.30
2018-05-12T19:41:41.128Z,50.20
2018-05-12T19:44:11.345Z,48.80
2018-05-12T19:46:40.643Z,48.80
2018-05-12T19:49:12.022Z,50.20
2018-05-12T19:51:41.304Z,51.20
2018-05-12T19:54:11.725Z,50.90
2018-05-12T19:56:41.409Z,50.90
2018-05-12T19:59:10.572Z,52.00
2018-05-12T20:01:43.261Z,53.80
2018-05-12T20:04:12.369Z,53.20
2018-05-12T20:06:41.586Z,53.90
2018-05-12T20:09:11.056Z,52.20
2018-05-12T20:11:40.186Z,52.30
2018-05-12T20:14:10.131Z,52.40
2018-05-12T20:16:39.462Z,51.50
2018-05-12T20:19:08.640Z,50.60
2018-05-12T20:21:37.958Z,50.40
2018-05-12T20:24:07.137Z,50.70
2018-05-12T20:26:36.244Z,50.90
2018-05-12T20:29:05.693Z,50.00
2018-05-12T20:31:34.794Z,51.80
2018-05-12T20:34:04.464Z,52.10
2018-05-12T20:36:35.492Z,53.20
2018-05-12T20:39:05.783Z,53.00
2018-05-12T20:41:38.633Z,54.20
2018-05-12T20:44:20.544Z,55.00
2018-05-12T20:46:50.262Z,55.10
2018-05-12T20:49:19.930Z,54.80
2018-05-12T20:51:49.135Z,53.70
2018-05-12T20:54:18.364Z,54.10
2018-05-12T20:56:47.484Z,54.00
2018-05-12T20:59:17.524Z,53.30
2018-05-12T21:01:48.172Z,56.00
2018-05-12T21:04:17.707Z,55.90
2018-05-12T21:06:47.763Z,54.80
2018-05-12T21:09:16.985Z,57.00
2018-05-12T21:11:47.881Z,57.50
2018-05-12T21:14:17.032Z,57.50
2018-05-12T21:16:46.184Z,57.70
2018-05-12T21:19:16.049Z,56.60
2018-05-12T21:21:45.517Z,55.50
2018-05-12T21:24:14.580Z,55.80
2018-05-12T21:26:43.876Z,55.80
2018-05-12T21:29:13.083Z,57.40
2018-05-12T21:31:42.406Z,58.30
2018-05-12T21:34:12.720Z,57.10
2018-05-12T21:36:42.470Z,56.40
2018-05-12T21:39:12.333Z,57.40
2018-05-12T21:41:43.367Z,57.30
2018-05-12T21:44:12.473Z,58.40
2018-05-12T21:46:42.077Z,60.30
2018-05-12T21:49:11.178Z,60.40
2018-05-12T21:51:41.075Z,59.20
2018-05-12T21:54:10.206Z,59.50
2018-05-12T21:56:39.504Z,60.40
2018-05-12T21:59:08.746Z,60.40
2018-05-12T22:01:38.630Z,60.00
2018-05-12T22:04:10.830Z,62.50
2018-05-12T22:06:39.917Z,62.50
2018-05-12T22:09:09.152Z,62.90
2018-05-12T22:11:38.349Z,61.90
2018-05-12T22:14:07.531Z,62.90
2018-05-12T22:16:38.397Z,63.40
2018-05-12T22:19:10.533Z,64.60
2018-05-12T22:21:39.673Z,64.50
2018-05-12T22:24:08.947Z,64.30
2018-05-12T22:29:13.534Z,66.30
2018-05-12T22:31:42.679Z,69.00
2018-05-12T22:34:12.157Z,68.20
2018-05-12T22:36:50.511Z,68.30
2018-05-12T22:42:07.253Z,68.70
2018-05-12T22:44:45.365Z,68.90
2018-05-12T22:47:14.668Z,69.80
2018-05-12T22:49:48.810Z,70.50
2018-05-12T22:55:02.196Z,73.10
2018-05-12T22:57:31.450Z,74.70
2018-05-12T23:00:02.709Z,74.90
2018-05-12T23:05:08.921Z,74.90
2018-05-12T23:07:38.800Z,75.50
2018-05-12T23:10:07.932Z,76.20
2018-05-12T23:12:37.103Z,77.00
2018-05-12T23:15:06.319Z,76.70
2018-05-12T23:17:35.384Z,76.80
2018-05-12T23:20:04.530Z,77.30
2018-05-12T23:22:34.534Z,78.20
2018-05-12T23:25:03.750Z,78.20
2018-05-12T23:27:33.000Z,79.50
2018-05-12T23:30:03.115Z,79.90
2018-05-12T23:32:32.762Z,81.10
2018-05-12T23:35:02.132Z,82.10
2018-05-12T23:37:31.358Z,83.60
2018-05-12T23:40:00.443Z,84.90
2018-05-12T23:42:32.418Z,85.30
2018-05-12T23:45:01.616Z,85.50
2018-05-12T23:47:30.738Z,86.90
2018-05-12T23:50:00.759Z,87.40
2018-05-12T23:52:30.457Z,88.10
2018-05-12T23:54:59.508Z,88.70
2018-05-12T23:57:28.768Z,89.90
2018-05-12T23:59:57.903Z,90.20
